Time;durP1;ratioP1;P1;durP2;ratioP2;P2;SDS_P1;SDS_P2;PMS_P1;PMS_P2;Temp;Humidity;BMP_temperature;BMP_pressure;BME280_temperature;BME280_humidity;BME280_pressure;Samples;Min_cycle;Max_cycle;Signal;HPM_P1;HPM_P2
2023/12/21 00:01:44;;;;;;;53.70;28.40;;;;;;;-144.30;100.00;86744.53;5110722;28;20651;-58
2023/12/21 00:04:11;;;;;;;51.70;27.20;;;;;;;-144.30;100.00;86772.34;5110748;28;20618;-59
2023/12/21 00:06:38;;;;;;;51.00;27.60;;;;;;;-144.30;100.00;86772.34;5110235;28;20198;-59
2023/12/21 00:09:06;;;;;;;56.97;27.93;;;;;;;-144.30;100.00;86780.31;5110837;28;20620;-58
2023/12/21 00:11:33;;;;;;;52.50;27.50;;;;;;;-144.30;100.00;86768.38;5110295;28;20199;-58
2023/12/21 00:14:01;;;;;;;50.50;27.53;;;;;;;-144.30;100.00;86756.44;5110343;28;20213;-58
2023/12/21 00:16:29;;;;;;;50.93;27.90;;;;;;;-144.30;100.00;86722.66;5110501;28;20221;-59
2023/12/21 00:18:57;;;;;;;46.30;27.23;;;;;;;-144.30;100.00;86730.59;5110652;28;20208;-59
2023/12/21 00:21:24;;;;;;;53.60;27.70;;;;;;;-144.30;100.00;86720.66;5109820;28;20200;-58
2023/12/21 00:23:50;;;;;;;47.97;26.87;;;;;;;-144.30;100.00;86764.41;5110246;28;20682;-57
2023/12/21 00:26:17;;;;;;;48.37;27.43;;;;;;;-144.30;100.00;86752.47;5109793;28;20191;-58
2023/12/21 00:28:44;;;;;;;52.23;27.73;;;;;;;-144.30;100.00;86756.44;5110505;28;20202;-58
2023/12/21 00:31:11;;;;;;;48.90;27.50;;;;;;;-144.30;100.00;86744.53;5110273;28;20565;-58
2023/12/21 00:33:40;;;;;;;55.97;28.10;;;;;;;-144.30;100.00;86706.72;5109879;28;20196;-59
2023/12/21 00:36:07;;;;;;;53.37;26.77;;;;;;;-144.30;100.00;86758.44;5110410;28;20583;-58
2023/12/21 00:38:34;;;;;;;45.87;25.70;;;;;;;-144.30;100.00;86758.44;5109953;28;20194;-58
2023/12/21 00:41:01;;;;;;;50.07;27.67;;;;;;;-144.30;100.00;86744.53;5109659;28;20234;-58
2023/12/21 00:43:28;;;;;;;47.67;25.73;;;;;;;-144.30;100.00;86748.50;5109500;28;20226;-59
2023/12/21 00:45:54;;;;;;;52.30;26.47;;;;;;;-144.30;100.00;86752.47;5110202;28;20615;-58
2023/12/21 00:48:21;;;;;;;51.33;27.17;;;;;;;-144.30;100.00;86772.34;5109830;28;20596;-57
2023/12/21 00:50:49;;;;;;;54.33;28.30;;;;;;;-144.30;100.00;86772.34;5109900;28;20394;-59
2023/12/21 00:53:17;;;;;;;47.23;26.90;;;;;;;-144.30;100.00;86712.69;5109901;28;20591;-59
2023/12/21 00:55:44;;;;;;;50.03;28.10;;;;;;;-144.30;100.00;86728.59;5109549;28;20285;-59
2023/12/21 00:58:11;;;;;;;46.83;26.73;;;;;;;-144.30;100.00;86591.38;5109713;28;20202;-58
2023/12/21 01:00:38;;;;;;;45.77;26.77;;;;;;;-144.30;100.00;86748.50;5109608;28;20190;-59
2023/12/21 01:03:06;;;;;;;49.60;27.43;;;;;;;-144.30;100.00;86780.31;5109837;28;20299;-59
2023/12/21 01:05:32;;;;;;;51.83;27.27;;;;;;;-144.30;100.00;86744.53;5109479;28;20230;-58
2023/12/21 01:08:01;;;;;;;46.30;26.43;;;;;;;-144.30;100.00;86762.41;5109684;28;20201;-58
2023/12/21 01:10:28;;;;;;;49.00;26.37;;;;;;;-144.30;100.00;86784.28;5109310;28;20209;-59
2023/12/21 01:12:55;;;;;;;43.03;24.17;;;;;;;-144.30;100.00;86748.50;5109702;28;20206;-59
2023/12/21 01:15:22;;;;;;;43.73;24.67;;;;;;;-144.30;100.00;86776.34;5109512;28;20191;-59
2023/12/21 01:17:49;;;;;;;42.27;23.10;;;;;;;-144.30;100.00;86736.56;5109717;28;20704;-58
2023/12/21 01:20:16;;;;;;;40.07;21.90;;;;;;;-144.30;100.00;86776.34;5110126;28;20566;-58
2023/12/21 01:22:43;;;;;;;35.63;21.70;;;;;;;-144.30;100.00;86790.25;5108997;28;20198;-59
2023/12/21 01:25:11;;;;;;;34.17;20.20;;;;;;;-144.30;100.00;86748.50;5109519;28;20225;-59
2023/12/21 01:27:38;;;;;;;35.77;19.57;;;;;;;-144.30;100.00;86780.31;5109637;28;20577;-58
2023/12/21 01:30:06;;;;;;;32.90;19.33;;;;;;;-144.30;100.00;86726.63;5109572;28;20582;-59
2023/12/21 01:32:33;;;;;;;32.23;18.80;;;;;;;-144.30;100.00;86774.34;5109157;28;20303;-59
2023/12/21 01:35:00;;;;;;;29.57;17.73;;;;;;;-144.30;100.00;86756.44;5109453;28;20191;-58
2023/12/21 01:37:27;;;;;;;31.93;19.27;;;;;;;-144.30;100.00;86764.41;5109134;28;20206;-59
2023/12/21 01:39:54;;;;;;;30.40;18.07;;;;;;;-144.30;100.00;86752.47;5112745;28;20421;-58
2023/12/21 01:42:22;;;;;;;30.33;18.33;;;;;;;-144.30;99.78;86740.53;5112810;28;20234;-59
2023/12/21 01:44:49;;;;;;;35.87;19.57;;;;;;;-144.30;99.42;86736.56;5113091;28;20229;-59
2023/12/21 01:47:17;;;;;;;36.77;19.77;;;;;;;-144.30;99.01;86754.47;5113018;28;20194;-59
2023/12/21 01:49:44;;;;;;;36.33;19.77;;;;;;;-144.30;98.61;86716.69;5112969;28;20195;-59
2023/12/21 01:52:11;;;;;;;38.20;19.77;;;;;;;-144.30;98.57;86752.47;5113110;28;20190;-60
2023/12/21 01:54:38;;;;;;;31.40;19.00;;;;;;;-144.30;98.66;86774.34;5112934;28;20224;-58
2023/12/21 01:57:05;;;;;;;39.03;21.10;;;;;;;-144.30;98.74;87070.69;5113220;28;20195;-59
2023/12/21 01:59:34;;;;;;;32.80;19.37;;;;;;;-144.30;98.82;86760.44;5112678;28;20293;-57
2023/12/21 02:02:01;;;;;;;35.23;20.60;;;;;;;-144.30;98.70;86734.56;5112544;28;20195;-59
2023/12/21 02:04:28;;;;;;;36.87;19.50;;;;;;;-144.30;98.77;86740.53;5112492;28;20218;-58
2023/12/21 02:06:55;;;;;;;31.83;19.27;;;;;;;-144.30;98.40;86744.53;5112948;28;20582;-58
2023/12/21 02:09:22;;;;;;;27.80;17.00;;;;;;;-144.30;97.72;86732.59;5112789;28;20580;-60
2023/12/21 02:11:48;;;;;;;27.43;17.67;;;;;;;-144.30;96.94;86712.69;5112571;28;20200;-59
2023/12/21 02:14:15;;;;;;;29.93;17.23;;;;;;;-144.30;97.05;86716.69;5112754;28;20187;-59
2023/12/21 02:16:49;;;;;;;31.63;17.53;;;;;;;-144.30;96.44;86728.59;5112611;28;20610;-59
2023/12/21 02:19:19;;;;;;;28.83;17.27;;;;;;;-144.30;96.14;86710.72;5112699;28;20195;-58
2023/12/21 02:21:47;;;;;;;32.17;17.07;;;;;;;-144.30;95.79;86742.53;5112676;28;20198;-59
2023/12/21 02:24:16;;;;;;;30.80;16.67;;;;;;;-144.30;95.88;86716.69;5112106;28;20221;-58
2023/12/21 02:26:43;;;;;;;24.53;16.00;;;;;;;-144.30;95.60;86708.72;5112387;28;20684;-59
2023/12/21 02:29:10;;;;;;;27.60;15.07;;;;;;;-144.30;95.42;86712.69;5112427;28;20298;-58
2023/12/21 02:31:38;;;;;;;26.00;14.30;;;;;;;-144.30;95.06;86704.75;5112030;28;20205;-59
2023/12/21 02:34:06;;;;;;;23.43;13.60;;;;;;;-144.30;94.53;86712.69;5112518;28;20205;-58
2023/12/21 02:36:33;;;;;;;20.83;13.50;;;;;;;-144.30;94.84;86692.81;5111923;28;20216;-59
2023/12/21 02:39:00;;;;;;;22.33;13.83;;;;;;;-144.30;94.58;86720.66;5112137;28;20286;-57
2023/12/21 02:41:28;;;;;;;19.87;12.87;;;;;;;-144.30;94.41;86716.69;5111712;28;20234;-59
2023/12/21 02:43:55;;;;;;;21.83;12.77;;;;;;;-144.30;93.88;86738.56;5111983;27;20195;-59
2023/12/21 02:46:25;;;;;;;23.80;12.50;;;;;;;-144.30;93.97;86682.88;5111952;28;20194;-59
2023/12/21 02:48:52;;;;;;;23.37;13.17;;;;;;;-144.30;93.50;86744.53;5111710;28;20308;-58
2023/12/21 02:51:19;;;;;;;21.23;13.20;;;;;;;-144.30;93.61;86714.69;5112175;28;20196;-58
2023/12/21 02:53:46;;;;;;;20.07;12.10;;;;;;;-144.30;93.37;86740.53;5112040;28;20252;-58
2023/12/21 02:56:13;;;;;;;18.80;12.37;;;;;;;-144.30;93.16;86712.69;5111854;28;20230;-58
2023/12/21 02:58:42;;;;;;;19.07;11.97;;;;;;;-144.30;93.17;86710.72;5111550;28;20207;-59
2023/12/21 03:01:09;;;;;;;23.80;12.20;;;;;;;-144.30;93.07;86744.53;5111864;28;20667;-59
2023/12/21 03:03:36;;;;;;;15.80;11.07;;;;;;;-144.30;93.04;86722.66;5111893;28;20610;-58
2023/12/21 03:06:03;;;;;;;19.13;12.10;;;;;;;-144.30;93.25;86732.59;5113339;27;20220;-58
2023/12/21 03:08:30;;;;;;;17.80;11.07;;;;;;;-144.30;92.76;86661.00;5120254;27;20196;-59
2023/12/21 03:10:57;;;;;;;16.40;11.00;;;;;;;-144.30;92.60;86714.69;5119837;27;20688;-59
2023/12/21 03:13:23;;;;;;;16.60;10.90;;;;;;;-144.30;92.91;86704.75;5120723;27;20233;-58
2023/12/21 03:15:52;;;;;;;20.60;11.60;;;;;;;-144.30;92.63;86657.03;5120891;27;20190;-59
2023/12/21 03:18:19;;;;;;;16.33;10.87;;;;;;;-144.30;92.94;86722.66;5122749;27;20273;-59
2023/12/21 03:20:46;;;;;;;14.70;10.70;;;;;;;-144.30;92.58;86680.88;5121324;27;20198;-58
2023/12/21 03:23:13;;;;;;;15.77;10.53;;;;;;;-144.30;92.26;86730.59;5112015;27;20229;-58
2023/12/21 03:25:40;;;;;;;15.80;10.63;;;;;;;-144.30;91.79;86704.75;5110953;28;20710;-59
2023/12/21 03:28:09;;;;;;;15.77;10.43;;;;;;;-144.30;91.83;86720.66;5110892;28;20203;-59
2023/12/21 03:30:36;;;;;;;16.00;9.97;;;;;;;-144.30;92.01;86714.69;5107437;28;20190;-58
2023/12/21 03:33:05;;;;;;;13.30;9.80;;;;;;;-144.30;91.68;86704.75;5109568;28;20203;-59
2023/12/21 03:35:32;;;;;;;16.40;10.53;;;;;;;-144.30;91.98;86672.94;5106393;28;20304;-58
2023/12/21 03:37:59;;;;;;;21.57;9.97;;;;;;;-144.30;91.96;86714.69;5109385;28;20192;-59
2023/12/21 03:40:26;;;;;;;15.00;9.67;;;;;;;-144.30;92.01;86692.81;5110047;28;20260;-58
2023/12/21 03:42:52;;;;;;;14.37;9.77;;;;;;;-144.30;92.08;86661.00;5110541;28;20226;-58
2023/12/21 03:45:20;;;;;;;14.33;9.43;;;;;;;-144.30;91.64;86597.34;5110792;28;20275;-59
2023/12/21 03:47:47;;;;;;;19.37;10.10;;;;;;;-144.30;91.01;86688.84;5108058;28;20631;-58
2023/12/21 03:50:15;;;;;;;19.73;10.60;;;;;;;-144.30;90.22;86657.03;5090445;28;20205;-58
2023/12/21 03:52:42;;;;;;;16.43;10.37;;;;;;;-144.30;89.36;86659.00;5090293;28;20196;-59
2023/12/21 03:55:09;;;;;;;15.53;10.07;;;;;;;-144.30;88.93;86672.94;5090230;28;20205;-59
2023/12/21 03:57:36;;;;;;;14.77;10.00;;;;;;;-144.30;88.70;86657.03;5090183;28;20191;-57
2023/12/21 04:00:03;;;;;;;18.33;11.15;;;;;;;-144.30;89.00;86637.13;5089150;28;20436;-59
2023/12/21 04:02:31;;;;;;;13.83;9.20;;;;;;;-144.30;89.10;86621.22;5089515;28;20245;-57
2023/12/21 04:04:58;;;;;;;12.60;9.13;;;;;;;-144.30;87.35;86591.38;5090158;28;20222;-58
2023/12/21 04:07:26;;;;;;;20.07;10.07;;;;;;;-144.30;87.72;86619.22;5089828;28;20191;-56
2023/12/21 04:09:53;;;;;;;10.50;7.97;;;;;;;-144.30;86.91;86573.50;5090295;28;20209;-58
2023/12/21 04:12:20;;;;;;;11.47;8.30;;;;;;;-144.30;85.79;86625.19;5090271;28;20195;-57
2023/12/21 04:14:47;;;;;;;9.20;7.33;;;;;;;-144.30;85.31;86605.31;5089717;28;20382;-58
2023/12/21 04:17:14;;;;;;;6.67;5.80;;;;;;;-144.30;84.00;86601.34;5090073;28;20437;-59
2023/12/21 04:19:41;;;;;;;8.37;6.60;;;;;;;-144.30;83.60;86591.38;5089440;28;20191;-59
2023/12/21 04:22:08;;;;;;;10.47;6.97;;;;;;;-144.30;83.79;86605.31;5089555;28;20199;-59
2023/12/21 04:24:36;;;;;;;7.73;6.03;;;;;;;-144.30;83.67;86607.31;5089033;28;20585;-59
2023/12/21 04:27:03;;;;;;;12.30;5.97;;;;;;;-144.30;83.95;86593.38;5089833;28;20208;-58
2023/12/21 04:29:30;;;;;;;10.23;7.03;;;;;;;-144.30;83.34;86573.50;5089467;28;20195;-58
2023/12/21 04:31:57;;;;;;;9.87;6.50;;;;;;;-144.30;83.50;86595.38;5089825;28;20707;-58
2023/12/21 04:34:24;;;;;;;8.97;6.23;;;;;;;-144.30;83.81;86607.31;5089658;28;20199;-59
2023/12/21 04:36:51;;;;;;;11.07;7.23;;;;;;;-144.30;84.21;86561.56;5089897;28;20580;-58
2023/12/21 04:39:17;;;;;;;9.87;7.30;;;;;;;-144.30;84.37;86589.41;5089808;28;20241;-59
2023/12/21 04:41:46;;;;;;;10.23;7.10;;;;;;;-144.30;85.14;86629.19;5089367;28;20238;-57
2023/12/21 04:44:13;;;;;;;8.70;6.60;;;;;;;-144.30;84.87;86603.31;5089679;28;20655;-58
2023/12/21 04:46:40;;;;;;;10.43;6.77;;;;;;;-144.30;84.67;86597.34;5089424;28;20219;-58
2023/12/21 04:49:06;;;;;;;10.60;7.03;;;;;;;-144.30;84.74;86631.16;5089503;28;20370;-58
2023/12/21 04:51:34;;;;;;;8.83;7.63;;;;;;;-144.30;84.46;86619.22;5089205;28;20289;-59
2023/12/21 04:54:01;;;;;;;13.33;8.40;;;;;;;-144.30;83.89;86565.53;5089589;28;20245;-59
2023/12/21 04:56:28;;;;;;;13.47;8.77;;;;;;;-144.30;83.80;86569.50;5089464;28;20191;-58
2023/12/21 04:58:56;;;;;;;14.57;9.20;;;;;;;-144.30;84.38;86591.38;5089657;28;20207;-58
2023/12/21 05:01:23;;;;;;;13.67;9.13;;;;;;;-144.30;84.20;86529.75;5089339;28;20199;-58
2023/12/21 05:03:50;;;;;;;17.10;10.00;;;;;;;-144.30;84.29;86601.34;5089705;28;20201;-58
2023/12/21 05:06:17;;;;;;;17.93;10.73;;;;;;;-144.30;84.14;86597.34;5089459;28;20215;-59
2023/12/21 05:08:43;;;;;;;15.17;10.80;;;;;;;-144.30;84.21;86613.28;5089172;28;20199;-59
2023/12/21 05:11:11;;;;;;;16.90;10.97;;;;;;;-144.30;84.19;86557.59;5094142;28;20259;-58
2023/12/21 05:13:37;;;;;;;19.97;11.33;;;;;;;-144.30;84.31;86557.59;5112419;28;20271;-59
2023/12/21 05:16:06;;;;;;;16.10;11.03;;;;;;;-144.30;84.29;86931.47;5113506;28;20670;-58
2023/12/21 05:18:35;;;;;;;15.43;11.37;;;;;;;-144.30;84.05;86593.38;5113274;28;20595;-59
2023/12/21 05:21:02;;;;;;;21.20;12.70;;;;;;;-144.30;84.55;86603.31;5118071;27;20673;-59
2023/12/21 05:23:29;;;;;;;19.40;12.43;;;;;;;-144.30;85.01;86585.44;5113439;28;20726;-57
2023/12/21 05:25:56;;;;;;;20.00;12.63;;;;;;;-144.30;85.11;86611.28;5112749;28;20639;-59
2023/12/21 05:28:23;;;;;;;20.97;13.70;;;;;;;-144.30;85.33;86589.41;5113488;28;20216;-58
2023/12/21 05:30:51;;;;;;;20.90;13.67;;;;;;;-144.30;85.74;86487.97;5113127;28;20663;-59
2023/12/21 05:33:19;;;;;;;22.20;14.27;;;;;;;-144.30;86.54;86589.41;5113354;28;20194;-58
2023/12/21 05:35:46;;;;;;;25.20;15.00;;;;;;;-144.30;86.68;86593.38;5113560;28;20194;-59
2023/12/21 05:38:13;;;;;;;23.23;14.57;;;;;;;-144.30;86.99;86605.31;5113522;28;20197;-58
2023/12/21 05:40:40;;;;;;;22.20;14.37;;;;;;;-144.30;87.33;86601.34;5112338;28;20191;-59
2023/12/21 05:43:07;;;;;;;25.23;15.10;;;;;;;-144.30;87.40;86631.16;5113322;28;20204;-58
2023/12/21 05:45:33;;;;;;;25.83;15.30;;;;;;;-144.30;87.63;86625.19;5112894;28;20325;-58
2023/12/21 05:48:00;;;;;;;26.97;16.20;;;;;;;-144.30;87.41;86607.31;5113427;28;20191;-58
2023/12/21 05:50:31;;;;;;;23.93;15.67;;;;;;;-144.30;88.17;86613.28;5113072;28;20194;-58
2023/12/21 05:52:59;;;;;;;29.37;16.77;;;;;;;-144.30;88.41;86625.19;5113167;28;20201;-58
2023/12/21 05:55:26;;;;;;;28.63;16.80;;;;;;;-144.30;87.84;86599.34;5111878;28;20197;-59
2023/12/21 05:57:53;;;;;;;29.37;16.73;;;;;;;-144.30;88.48;86633.16;5111966;28;20203;-58
2023/12/21 06:00:20;;;;;;;27.93;16.40;;;;;;;-144.30;87.98;86615.25;5111303;28;20198;-59
2023/12/21 06:02:47;;;;;;;26.80;16.27;;;;;;;-144.30;88.23;86647.06;5112057;28;20194;-57
2023/12/21 06:05:15;;;;;;;26.90;16.47;;;;;;;-144.30;88.16;86597.34;5113138;28;20214;-58
2023/12/21 06:07:43;;;;;;;28.00;17.27;;;;;;;-144.30;88.19;86587.41;5113053;28;20204;-59
2023/12/21 06:10:10;;;;;;;31.07;16.83;;;;;;;-144.30;88.30;86664.97;5112927;28;20195;-59
2023/12/21 06:12:37;;;;;;;27.63;16.83;;;;;;;-144.30;88.65;86637.13;5112514;28;20198;-59
2023/12/21 06:15:05;;;;;;;25.97;15.93;;;;;;;-144.30;88.26;86631.16;5112428;28;20290;-58
2023/12/21 06:17:32;;;;;;;27.80;16.27;;;;;;;-144.30;88.08;86621.22;5112889;28;20206;-58
2023/12/21 06:20:00;;;;;;;32.30;15.50;;;;;;;-144.30;88.10;86647.06;5112703;28;20259;-59
2023/12/21 06:22:27;;;;;;;24.67;14.57;;;;;;;-144.30;88.29;86627.19;5112332;28;20195;-59
2023/12/21 06:24:55;;;;;;;24.07;15.33;;;;;;;-144.30;87.91;86549.63;5111557;28;20202;-59
2023/12/21 06:27:23;;;;;;;23.30;14.57;;;;;;;-144.30;88.27;86605.31;5112438;28;20218;-59
2023/12/21 06:29:50;;;;;;;24.63;15.00;;;;;;;-144.30;88.06;86631.16;5112434;27;20198;-58
2023/12/21 06:32:16;;;;;;;21.97;13.80;;;;;;;-144.30;87.58;86601.34;5112329;28;20294;-57
2023/12/21 06:34:43;;;;;;;25.97;14.97;;;;;;;-144.30;88.13;86613.28;5111873;28;20198;-58
2023/12/21 06:37:10;;;;;;;19.73;13.40;;;;;;;-144.30;87.83;86571.50;5112196;28;20191;-58
2023/12/21 06:39:37;;;;;;;28.40;14.57;;;;;;;-144.30;87.83;86589.41;5111843;28;20674;-58
2023/12/21 06:42:06;;;;;;;27.77;14.90;;;;;;;-144.30;87.58;86617.25;5111896;28;20641;-58
2023/12/21 06:44:33;;;;;;;23.87;14.50;;;;;;;-144.30;87.40;86601.34;5112075;28;20203;-58
2023/12/21 06:47:00;;;;;;;24.93;14.77;;;;;;;-144.30;87.71;86629.19;5112004;28;20218;-59
2023/12/21 06:49:27;;;;;;;24.30;13.03;;;;;;;-144.30;87.31;86553.59;5112045;28;20692;-58
2023/12/21 06:51:54;;;;;;;23.27;14.00;;;;;;;-144.30;87.44;86597.34;5112174;28;20650;-59
2023/12/21 06:54:21;;;;;;;28.17;15.93;;;;;;;-144.30;87.53;86583.44;5112098;28;20762;-58
2023/12/21 06:56:48;;;;;;;22.13;13.53;;;;;;;-144.30;88.30;86589.41;5112039;28;20215;-59
2023/12/21 06:59:16;;;;;;;26.60;14.77;;;;;;;-144.30;88.33;86601.34;5111994;28;20194;-59
2023/12/21 07:01:43;;;;;;;24.77;15.30;;;;;;;-144.30;87.14;86581.44;5111618;28;20190;-58
2023/12/21 07:04:11;;;;;;;22.07;14.00;;;;;;;-144.30;86.78;86587.41;5110173;28;20279;-60
2023/12/21 07:06:38;;;;;;;27.10;14.23;;;;;;;-144.30;86.67;86539.69;5111049;28;20257;-58
2023/12/21 07:09:05;;;;;;;21.50;14.40;;;;;;;-144.30;86.41;86575.47;5111695;28;20277;-59
2023/12/21 07:11:33;;;;;;;27.47;14.07;;;;;;;-144.30;86.29;86537.69;5111528;28;20234;-60
2023/12/21 07:14:00;;;;;;;25.13;14.20;;;;;;;-144.30;86.09;86593.38;5111468;28;20230;-58
2023/12/21 07:16:28;;;;;;;23.53;13.87;;;;;;;-144.30;85.89;86577.47;5111143;28;20653;-59
2023/12/21 07:18:55;;;;;;;20.27;13.13;;;;;;;-144.30;86.15;86529.75;5111071;28;20203;-59
2023/12/21 07:21:23;;;;;;;23.93;13.87;;;;;;;-144.30;85.76;86555.59;5111276;28;20282;-59
2023/12/21 07:23:49;;;;;;;24.60;14.43;;;;;;;-144.30;85.42;86525.75;5111231;28;20237;-58
2023/12/21 07:26:16;;;;;;;23.20;13.40;;;;;;;-144.30;84.53;86561.56;5111027;28;20225;-58
2023/12/21 07:28:43;;;;;;;24.47;15.87;;;;;;;-144.30;84.94;86497.94;5111030;28;20690;-58
2023/12/21 07:31:13;;;;;;;26.30;15.47;;;;;;;-144.30;85.10;86563.56;5111190;28;20589;-58
2023/12/21 07:33:42;;;;;;;25.47;15.23;;;;;;;-144.30;83.99;86529.75;5110790;28;20204;-60
2023/12/21 07:36:09;;;;;;;28.60;15.30;;;;;;;-144.30;84.69;86569.50;5109922;28;20275;-59
2023/12/21 07:38:36;;;;;;;28.40;14.97;;;;;;;-144.30;84.76;86583.44;5111042;28;20674;-59
2023/12/21 07:41:03;;;;;;;23.00;14.90;;;;;;;-144.30;84.31;86551.63;5110898;27;20234;-59
2023/12/21 07:43:31;;;;;;;26.43;15.10;;;;;;;-144.30;84.46;86450.19;5110610;28;20194;-58
2023/12/21 07:45:58;;;;;;;25.93;15.60;;;;;;;-144.30;84.19;86430.31;5111109;28;20333;-60
2023/12/21 07:48:24;;;;;;;26.83;14.43;;;;;;;-144.30;83.78;86533.72;5110437;28;20198;-57
2023/12/21 07:50:53;;;;;;;25.60;14.90;;;;;;;-144.30;83.64;86432.31;5110835;28;20203;-58
2023/12/21 07:53:20;;;;;;;28.97;15.30;;;;;;;-144.30;83.75;86521.78;5110705;28;20302;-57
2023/12/21 07:55:47;;;;;;;24.60;15.23;;;;;;;-144.30;83.48;86489.97;5110602;28;20317;-57
2023/12/21 07:58:14;;;;;;;22.23;15.03;;;;;;;-144.30;82.81;86452.19;5110877;28;20198;-59
2023/12/21 08:00:41;;;;;;;22.10;14.40;;;;;;;-144.30;83.24;86527.75;5110185;28;20226;-61
2023/12/21 08:03:08;;;;;;;24.23;14.73;;;;;;;-144.30;83.21;86505.88;5110825;28;20666;-59
2023/12/21 08:05:36;;;;;;;24.17;14.20;;;;;;;-144.30;83.00;86491.97;5110515;28;20277;-58
2023/12/21 08:08:05;;;;;;;23.97;14.50;;;;;;;-144.30;82.78;86523.78;5110197;28;20195;-58
2023/12/21 08:10:32;;;;;;;25.27;14.30;;;;;;;-144.30;82.60;86497.94;5110042;28;20277;-59
2023/12/21 08:12:59;;;;;;;20.10;13.50;;;;;;;-144.30;82.19;86489.97;5110460;28;20745;-59
2023/12/21 08:15:26;;;;;;;20.87;13.73;;;;;;;-144.30;82.40;86472.06;5110298;28;20205;-59
2023/12/21 08:17:55;;;;;;;20.87;13.03;;;;;;;-144.30;82.42;86513.84;5110317;28;20187;-59
2023/12/21 08:20:23;;;;;;;23.00;13.40;;;;;;;-144.30;82.15;86456.16;5110439;28;20194;-57
2023/12/21 08:22:50;;;;;;;22.17;12.50;;;;;;;-144.30;81.53;86478.03;5110235;28;20195;-59
2023/12/21 08:25:18;;;;;;;19.97;13.93;;;;;;;-144.30;81.42;86517.81;5110265;28;20366;-58
2023/12/21 08:27:45;;;;;;;20.13;12.87;;;;;;;-144.30;81.48;86438.28;5109639;28;20218;-58
2023/12/21 08:30:13;;;;;;;20.17;13.03;;;;;;;-144.30;81.11;86501.91;5110007;28;20283;-56
2023/12/21 08:32:40;;;;;;;19.13;12.47;;;;;;;-144.30;81.18;86474.06;5109771;28;20205;-58
2023/12/21 08:35:08;;;;;;;23.33;14.27;;;;;;;-144.30;80.93;86426.34;5110414;28;20205;-58
2023/12/21 08:37:35;;;;;;;20.73;12.77;;;;;;;-144.30;80.94;86450.19;5110279;28;20201;-61
2023/12/21 08:40:02;;;;;;;22.63;12.80;;;;;;;-144.30;81.19;86452.19;5109824;28;20194;-59
2023/12/21 08:42:30;;;;;;;23.23;12.30;;;;;;;-144.30;81.02;86422.38;5109849;28;20846;-59
2023/12/21 08:44:59;;;;;;;15.87;10.87;;;;;;;-144.30;80.35;86426.34;5109877;28;20206;-61
2023/12/21 08:47:26;;;;;;;20.93;11.53;;;;;;;-144.30;79.93;86424.34;5109297;28;20226;-57
2023/12/21 08:49:53;;;;;;;16.67;11.07;;;;;;;-144.30;79.71;86446.22;5105238;28;20224;-57
2023/12/21 08:52:20;;;;;;;18.63;11.73;;;;;;;-144.30;79.89;86472.06;5109539;28;20677;-57
2023/12/21 08:54:47;;;;;;;19.07;10.77;;;;;;;-144.30;79.13;86414.41;5109499;28;20202;-57
2023/12/21 08:57:14;;;;;;;15.57;10.33;;;;;;;-144.30;79.75;86414.41;5109575;28;20201;-57
2023/12/21 08:59:43;;;;;;;21.37;11.67;;;;;;;-144.30;79.58;86418.38;5108487;28;20210;-56
2023/12/21 09:02:11;;;;;;;21.00;11.67;;;;;;;-144.30;79.73;86424.34;5108479;28;20195;-57
2023/12/21 09:04:37;;;;;;;16.03;10.80;;;;;;;-144.30;79.11;86358.72;5108999;28;20191;-59
2023/12/21 09:07:05;;;;;;;17.73;11.07;;;;;;;-144.30;79.20;86414.41;5109721;28;20224;-56
2023/12/21 09:09:31;;;;;;;15.53;10.00;;;;;;;-144.30;78.11;86442.25;5109348;28;20201;-57
2023/12/21 09:11:58;;;;;;;16.60;10.20;;;;;;;-144.30;78.32;86402.47;5109355;28;20204;-57
2023/12/21 09:14:25;;;;;;;19.07;10.67;;;;;;;-144.30;78.07;86386.56;5109706;28;20670;-58
2023/12/21 09:16:54;;;;;;;19.10;10.10;;;;;;;-144.30;77.87;86454.19;5109355;28;20190;-57
2023/12/21 09:19:21;;;;;;;14.73;10.80;;;;;;;-144.30;77.65;86398.50;5109727;28;20209;-57
2023/12/21 09:21:47;;;;;;;17.23;11.30;;;;;;;-144.30;77.61;86354.75;5109195;28;20251;-56
2023/12/21 09:24:14;;;;;;;16.30;11.07;;;;;;;-144.30;77.99;86382.59;5109609;28;20198;-56
2023/12/21 09:26:42;;;;;;;19.87;10.63;;;;;;;-144.30;77.77;86384.59;5109541;28;20769;-56
2023/12/21 09:29:09;;;;;;;20.57;11.17;;;;;;;-144.30;77.55;86402.47;5109592;28;20198;-57
2023/12/21 09:31:36;;;;;;;24.17;11.07;;;;;;;-144.30;77.17;86382.59;5109700;28;20197;-57
2023/12/21 09:34:04;;;;;;;14.73;10.07;;;;;;;-144.30;76.59;86360.72;5109175;28;20198;-58
2023/12/21 09:36:32;;;;;;;14.10;10.30;;;;;;;-144.30;76.33;86378.63;5104495;28;20283;-59
2023/12/21 09:38:59;;;;;;;22.07;11.87;;;;;;;-144.30;76.44;86378.63;5108680;28;20209;-58
2023/12/21 09:41:26;;;;;;;15.50;9.43;;;;;;;-144.30;76.05;86364.69;5109115;28;20842;-57
2023/12/21 09:43:55;;;;;;;19.03;9.17;;;;;;;-144.30;76.12;86360.72;5108966;28;20201;-58
2023/12/21 09:46:24;;;;;;;13.30;9.13;;;;;;;-144.30;76.04;86364.69;5110860;28;20692;-57
2023/12/21 09:48:53;;;;;;;15.90;9.17;;;;;;;-144.30;76.29;86326.91;5118347;27;20199;-58
2023/12/21 09:51:24;;;;;;;24.03;9.27;;;;;;;-144.30;77.62;86374.63;5108243;28;20194;-57
2023/12/21 09:53:53;;;;;;;154.73;18.87;;;;;;;-144.30;77.82;86358.72;5109043;28;20220;-59
2023/12/21 09:56:21;;;;;;;50.80;11.43;;;;;;;-144.30;75.69;86313.00;5109140;28;20201;-58
2023/12/21 09:58:48;;;;;;;20.37;9.23;;;;;;;-144.30;75.33;86332.88;5109042;28;20194;-59
2023/12/21 10:01:15;;;;;;;17.43;8.53;;;;;;;-144.30;75.14;86277.19;5112830;28;20199;-60
2023/12/21 10:03:43;;;;;;;15.73;8.83;;;;;;;-144.30;75.09;86350.78;5112984;28;20221;-59
2023/12/21 10:06:10;;;;;;;13.43;9.10;;;;;;;-144.30;75.05;86350.78;5112443;28;20226;-57
2023/12/21 10:08:40;;;;;;;12.87;8.67;;;;;;;-144.30;74.95;86283.16;5112653;28;20191;-58
2023/12/21 10:11:07;;;;;;;10.23;7.93;;;;;;;-144.30;74.41;86311.00;5112853;28;20290;-59
2023/12/21 10:13:34;;;;;;;11.50;7.90;;;;;;;-144.30;74.39;86297.09;5112574;28;20255;-58
2023/12/21 10:16:03;;;;;;;15.67;9.40;;;;;;;-144.30;74.64;86201.66;5112816;28;20231;-60
2023/12/21 10:18:30;;;;;;;14.23;9.07;;;;;;;-144.30;74.33;86301.06;5112255;28;20199;-57
2023/12/21 10:20:57;;;;;;;14.07;7.80;;;;;;;-144.30;74.70;86328.91;5111943;28;20205;-58
2023/12/21 10:23:26;;;;;;;11.10;8.43;;;;;;;-144.30;74.58;86124.09;5112539;28;20222;-59
2023/12/21 10:25:55;;;;;;;13.00;9.07;;;;;;;-144.30;74.73;86322.94;5112478;28;20198;-59
2023/12/21 10:28:23;;;;;;;16.70;8.77;;;;;;;-144.30;74.25;86314.97;5112699;28;20735;-59
2023/12/21 10:30:54;;;;;;;11.07;8.17;;;;;;;-144.30;73.78;86322.94;5112183;28;20194;-62
2023/12/21 10:33:22;;;;;;;9.90;8.40;;;;;;;-144.30;73.25;86342.81;5112596;28;20581;-60
2023/12/21 10:35:52;;;;;;;12.97;8.70;;;;;;;-144.30;73.82;86239.44;5112420;28;20662;-60
2023/12/21 10:38:19;;;;;;;13.40;7.83;;;;;;;-144.30;73.73;86318.97;5112230;28;20205;-62
2023/12/21 10:40:47;;;;;;;13.63;6.63;;;;;;;-144.30;71.46;86295.09;5111833;28;20201;-59
2023/12/21 10:43:16;;;;;;;10.07;7.37;;;;;;;-144.30;70.72;86287.16;5112196;28;20277;-56
2023/12/21 10:45:44;;;;;;;9.37;6.40;;;;;;;-144.30;70.12;86263.28;5112261;28;20230;-56
2023/12/21 10:48:13;;;;;;;10.33;6.87;;;;;;;-144.30;69.33;86239.44;5112198;28;20292;-56
2023/12/21 10:50:43;;;;;;;8.77;6.30;;;;;;;-144.30;69.32;86247.38;5112079;28;20721;-57
2023/12/21 10:53:12;;;;;;;7.33;6.40;;;;;;;-144.30;64.32;86289.13;5112311;28;20713;-56
2023/12/21 10:55:41;;;;;;;6.70;6.00;;;;;;;-144.30;63.26;86303.06;5111905;28;20191;-59
2023/12/21 10:58:08;;;;;;;10.53;6.93;;;;;;;-144.30;63.13;86231.47;5111744;28;20817;-56
2023/12/21 11:00:38;;;;;;;16.03;7.80;;;;;;;-144.30;62.43;86299.06;5111736;28;20220;-59
2023/12/21 11:03:08;;;;;;;7.57;6.30;;;;;;;-144.30;62.52;86223.50;5111903;28;20580;-60